createdAt,value
2023-04-07T00:00:25.767Z,2.05
2023-04-07T00:02:52.403Z,2.18
2023-04-07T00:05:19.028Z,2.44
2023-04-07T00:07:55.949Z,2.12
2023-04-07T00:10:25.345Z,1.97
2023-04-07T00:12:52.359Z,1.92
2023-04-07T00:15:18.861Z,2.16
2023-04-07T00:17:45.348Z,2.08
2023-04-07T00:20:12.355Z,1.92
2023-04-07T00:22:38.886Z,2.00
2023-04-07T00:25:05.866Z,2.08
2023-04-07T00:27:32.357Z,2.01
2023-04-07T00:29:58.850Z,2.11
2023-04-07T00:32:25.629Z,2.13
2023-04-07T00:34:52.178Z,2.27
2023-04-07T00:37:18.661Z,2.28
2023-04-07T00:39:45.437Z,2.14
2023-04-07T00:42:11.989Z,2.06
2023-04-07T00:44:38.599Z,2.00
2023-04-07T00:47:05.239Z,1.94
2023-04-07T00:49:31.817Z,1.97
2023-04-07T00:51:59.021Z,2.04
2023-04-07T00:54:25.523Z,2.05
2023-04-07T00:56:54.747Z,1.96
2023-04-07T00:59:21.415Z,2.04
2023-04-07T01:02:23.029Z,2.03
2023-04-07T01:05:11.128Z,2.01
2023-04-07T01:07:46.946Z,2.21
2023-04-07T01:10:20.701Z,2.07
2023-04-07T01:13:02.709Z,2.11
2023-04-07T01:15:33.733Z,1.93
2023-04-07T01:18:31.927Z,2.37
2023-04-07T01:21:09.356Z,2.39
2023-04-07T01:23:51.842Z,2.34
2023-04-07T01:26:31.031Z,2.37
2023-04-07T01:29:28.081Z,2.08
2023-04-07T01:31:58.363Z,2.02
2023-04-07T01:34:29.479Z,1.97
2023-04-07T01:36:59.126Z,2.10
2023-04-07T01:39:27.937Z,2.01
2023-04-07T01:41:55.813Z,2.25
2023-04-07T01:44:22.919Z,2.01
2023-04-07T01:46:50.617Z,2.13
2023-04-07T01:49:19.428Z,2.01
2023-04-07T01:51:46.287Z,1.92
2023-04-07T01:54:12.921Z,1.99
2023-04-07T01:56:39.448Z,1.98
2023-04-07T01:59:05.897Z,2.11
2023-04-07T02:01:32.699Z,2.01
2023-04-07T02:04:21.924Z,2.20
2023-04-07T02:06:54.425Z,1.98
2023-04-07T02:09:23.980Z,2.28
2023-04-07T02:11:55.392Z,2.07
2023-04-07T02:14:23.775Z,2.13
2023-04-07T02:16:52.466Z,2.04
2023-04-07T02:19:19.615Z,2.30
2023-04-07T02:21:48.485Z,2.03
2023-04-07T02:24:19.027Z,2.14
2023-04-07T02:26:45.482Z,2.21
2023-04-07T02:29:11.970Z,2.07
2023-04-07T02:31:38.504Z,2.16
2023-04-07T02:34:04.981Z,2.14
2023-04-07T02:36:31.513Z,2.37
2023-04-07T02:38:58.497Z,2.21
2023-04-07T02:41:24.963Z,2.30
2023-04-07T02:43:51.434Z,2.34
2023-04-07T02:46:17.984Z,2.17
2023-04-07T02:48:44.518Z,2.17
2023-04-07T02:51:11.005Z,2.29
2023-04-07T02:53:37.463Z,2.37
2023-04-07T02:56:04.173Z,2.40
2023-04-07T02:58:30.661Z,2.55
2023-04-07T03:00:57.169Z,2.22
2023-04-07T03:03:23.836Z,2.45
2023-04-07T03:05:50.498Z,2.74
2023-04-07T03:08:16.987Z,2.64
2023-04-07T03:10:43.507Z,2.83
2023-04-07T03:13:10.044Z,2.67
2023-04-07T03:15:36.499Z,2.93
2023-04-07T03:18:03.021Z,2.46
2023-04-07T03:20:29.567Z,2.56
2023-04-07T03:22:56.073Z,2.40
2023-04-07T03:25:22.545Z,2.62
2023-04-07T03:27:49.071Z,2.72
2023-04-07T03:30:15.629Z,2.48
2023-04-07T03:32:42.170Z,2.58
2023-04-07T03:35:08.989Z,2.66
2023-04-07T03:37:35.466Z,2.92
2023-04-07T03:40:02.038Z,2.78
2023-04-07T03:42:28.548Z,2.82
2023-04-07T03:44:55.002Z,3.04
2023-04-07T03:47:21.454Z,3.16
2023-04-07T03:49:48.030Z,3.30
2023-04-07T03:52:14.556Z,3.40
2023-04-07T03:54:41.045Z,3.47
2023-04-07T03:57:07.542Z,3.57
2023-04-07T03:59:34.195Z,3.64
2023-04-07T04:02:00.726Z,4.04
2023-04-07T04:04:27.222Z,4.43
2023-04-07T04:06:53.796Z,4.40
2023-04-07T04:09:20.283Z,4.36
2023-04-07T04:11:47.051Z,4.22
2023-04-07T04:14:13.570Z,4.11
2023-04-07T04:16:40.074Z,4.15
2023-04-07T04:19:06.572Z,3.93
2023-04-07T04:21:33.149Z,3.37
2023-04-07T04:23:59.677Z,3.48
2023-04-07T04:26:26.213Z,3.53
2023-04-07T04:28:52.872Z,3.48
2023-04-07T04:31:19.383Z,3.25
2023-04-07T04:33:46.270Z,3.06
2023-04-07T04:36:12.774Z,3.38
2023-04-07T04:38:39.238Z,3.41
2023-04-07T04:41:05.722Z,3.69
2023-04-07T04:43:32.201Z,3.57
2023-04-07T04:45:59.188Z,3.89
2023-04-07T04:48:25.717Z,3.73
2023-04-07T04:50:52.221Z,3.89
2023-04-07T04:53:18.856Z,3.82
2023-04-07T04:55:45.385Z,3.41
2023-04-07T04:58:11.913Z,3.51
2023-04-07T05:00:38.415Z,3.01
2023-04-07T05:03:05.130Z,3.10
2023-04-07T05:05:31.668Z,3.07
2023-04-07T05:07:58.175Z,3.28
2023-04-07T05:10:24.676Z,3.34
2023-04-07T05:12:51.193Z,3.56
2023-04-07T05:15:17.740Z,3.59
2023-04-07T05:17:44.241Z,3.37
2023-04-07T05:20:14.574Z,3.28
2023-04-07T05:22:41.104Z,3.83
2023-04-07T05:25:08.165Z,3.87
2023-04-07T05:27:34.665Z,4.02
2023-04-07T05:30:01.212Z,3.89
2023-04-07T05:32:28.792Z,3.99
2023-04-07T05:34:55.275Z,3.49
2023-04-07T05:37:21.779Z,3.68
2023-04-07T05:39:48.299Z,3.41
2023-04-07T05:42:14.800Z,3.63
2023-04-07T05:44:41.309Z,3.38
2023-04-07T05:47:07.782Z,3.50
2023-04-07T05:49:35.173Z,3.54
2023-04-07T05:52:01.670Z,3.77
2023-04-07T05:54:28.154Z,3.80
2023-04-07T05:56:54.604Z,3.43
2023-04-07T05:59:21.100Z,3.58
2023-04-07T06:01:49.504Z,3.39
2023-04-07T06:04:16.078Z,3.77
2023-04-07T06:06:43.668Z,3.46
2023-04-07T06:09:10.169Z,3.30
2023-04-07T06:11:36.629Z,3.97
2023-04-07T06:14:03.149Z,3.63
2023-04-07T06:16:29.648Z,3.21
2023-04-07T06:18:56.174Z,3.26
2023-04-07T06:21:22.702Z,3.56
2023-04-07T06:23:49.449Z,3.34
2023-04-07T06:26:16.169Z,3.27
2023-04-07T06:28:42.610Z,3.14
2023-04-07T06:31:09.222Z,3.13
2023-04-07T06:33:35.809Z,3.39
2023-04-07T06:36:02.409Z,3.21
2023-04-07T06:38:28.987Z,3.22
2023-04-07T06:40:55.639Z,3.36
2023-04-07T06:43:22.089Z,3.26
2023-04-07T06:45:48.884Z,3.18
2023-04-07T06:48:16.012Z,3.17
2023-04-07T06:50:46.449Z,3.51
2023-04-07T06:53:13.015Z,3.40
2023-04-07T06:55:39.504Z,3.10
2023-04-07T06:58:05.956Z,3.57
2023-04-07T07:00:32.515Z,3.61
2023-04-07T07:02:59.212Z,3.28
2023-04-07T07:05:25.852Z,3.61
2023-04-07T07:07:52.371Z,3.56
2023-04-07T07:10:18.925Z,3.58
2023-04-07T07:12:45.375Z,3.51
2023-04-07T07:15:12.127Z,3.61
2023-04-07T07:17:38.658Z,3.48
2023-04-07T07:20:05.869Z,3.60
2023-04-07T07:22:32.318Z,3.50
2023-04-07T07:24:58.845Z,3.43
2023-04-07T07:27:25.324Z,3.15
2023-04-07T07:29:51.794Z,3.48
2023-04-07T07:32:18.244Z,3.87
2023-04-07T07:34:44.801Z,3.50
2023-04-07T07:37:11.381Z,3.41
2023-04-07T07:39:37.905Z,3.16
2023-04-07T07:42:04.392Z,3.65
2023-04-07T07:44:32.538Z,3.38
2023-04-07T07:46:59.162Z,3.37
2023-04-07T07:49:25.648Z,3.27
2023-04-07T07:51:52.109Z,3.49
2023-04-07T07:54:18.627Z,3.68
2023-04-07T07:56:45.124Z,3.62
2023-04-07T07:59:11.650Z,3.56
2023-04-07T08:01:38.164Z,3.63
2023-04-07T08:04:04.773Z,3.75
2023-04-07T08:06:31.313Z,3.81
2023-04-07T08:08:57.925Z,3.65
2023-04-07T08:11:24.475Z,3.69
2023-04-07T08:13:51.172Z,3.76
2023-04-07T08:16:17.824Z,3.56
2023-04-07T08:18:44.381Z,3.63
2023-04-07T08:21:10.909Z,3.99
2023-04-07T08:23:37.380Z,3.78
2023-04-07T08:26:03.880Z,4.16
2023-04-07T08:28:30.410Z,4.18
2023-04-07T08:30:56.984Z,3.87
2023-04-07T08:33:23.454Z,3.58
2023-04-07T08:35:49.940Z,3.76
2023-04-07T08:38:16.451Z,3.89
2023-04-07T08:40:42.911Z,4.55
2023-04-07T08:43:10.182Z,4.23
2023-04-07T08:45:41.693Z,3.91
2023-04-07T08:48:17.022Z,3.84
2023-04-07T08:50:45.432Z,3.85
2023-04-07T08:53:18.327Z,3.90
2023-04-07T08:55:44.928Z,4.70
2023-04-07T08:58:13.302Z,4.19
2023-04-07T09:00:40.975Z,4.38
2023-04-07T09:03:10.873Z,3.98
2023-04-07T09:05:38.982Z,4.44
2023-04-07T09:08:05.477Z,3.83
2023-04-07T09:10:32.094Z,3.97
2023-04-07T09:12:59.519Z,4.09
2023-04-07T09:15:30.830Z,4.07
2023-04-07T09:17:57.846Z,3.95
2023-04-07T09:20:24.552Z,3.98
2023-04-07T09:22:51.568Z,4.12
2023-04-07T09:25:23.774Z,4.01
2023-04-07T09:28:04.756Z,3.74
2023-04-07T09:30:33.452Z,3.88
2023-04-07T09:33:01.563Z,4.07
2023-04-07T09:35:28.290Z,4.50
2023-04-07T09:38:01.924Z,6.66
2023-04-07T09:40:28.500Z,5.49
2023-04-07T09:42:55.026Z,4.12
2023-04-07T09:45:33.804Z,4.39
2023-04-07T09:48:09.052Z,4.32
2023-04-07T09:50:39.291Z,4.85
2023-04-07T09:53:05.774Z,4.20
2023-04-07T09:55:33.604Z,4.17
2023-04-07T09:58:00.358Z,4.25
2023-04-07T10:00:26.969Z,4.13
2023-04-07T10:02:54.935Z,4.35
2023-04-07T10:05:22.009Z,4.07
2023-04-07T10:07:49.286Z,3.81
2023-04-07T10:10:16.008Z,3.72
2023-04-07T10:12:43.209Z,4.01
2023-04-07T10:15:12.943Z,3.90
2023-04-07T10:17:40.341Z,3.86
2023-04-07T10:20:09.847Z,3.97
2023-04-07T10:22:38.808Z,3.94
2023-04-07T10:25:12.516Z,3.90
2023-04-07T10:27:44.933Z,4.44
2023-04-07T10:30:26.901Z,4.36
2023-04-07T10:32:54.965Z,4.27
2023-04-07T10:35:22.678Z,4.24
2023-04-07T10:38:07.478Z,4.26
2023-04-07T10:40:35.535Z,4.86
2023-04-07T10:43:02.409Z,4.60
2023-04-07T10:45:47.331Z,4.88
2023-04-07T10:48:16.318Z,4.73
2023-04-07T10:50:42.793Z,4.76
2023-04-07T10:53:11.334Z,4.80
2023-04-07T10:55:39.756Z,4.86
2023-04-07T10:58:26.065Z,5.07
2023-04-07T11:01:08.024Z,5.22
2023-04-07T11:03:39.784Z,5.33
2023-04-07T11:06:07.612Z,5.63
2023-04-07T11:08:43.672Z,5.88
2023-04-07T11:11:12.984Z,5.92
2023-04-07T11:13:43.210Z,6.14
2023-04-07T11:16:10.759Z,5.79
2023-04-07T11:18:37.684Z,5.80
2023-04-07T11:21:07.250Z,5.74
2023-04-07T11:23:42.293Z,5.51
2023-04-07T11:26:11.182Z,5.65
2023-04-07T11:28:51.704Z,5.64
2023-04-07T11:31:22.515Z,5.70
2023-04-07T11:33:57.105Z,5.50
2023-04-07T11:36:30.763Z,5.77
2023-04-07T11:38:57.276Z,5.66
2023-04-07T11:41:26.188Z,5.80
2023-04-07T11:44:14.057Z,5.56
2023-04-07T11:47:00.825Z,5.76
2023-04-07T11:49:28.282Z,5.58
2023-04-07T11:52:03.776Z,5.69
2023-04-07T11:54:46.533Z,5.69
2023-04-07T11:57:14.426Z,5.60
2023-04-07T11:59:41.475Z,5.61
2023-04-07T12:02:08.363Z,5.66
2023-04-07T12:04:35.161Z,5.91
2023-04-07T12:07:10.990Z,5.49
2023-04-07T12:09:38.416Z,5.74
2023-04-07T12:12:06.737Z,5.44
2023-04-07T12:14:34.605Z,5.21
2023-04-07T12:17:01.092Z,5.35
2023-04-07T12:19:28.964Z,5.20
2023-04-07T12:21:56.565Z,4.75
2023-04-07T12:24:23.284Z,5.23
2023-04-07T12:26:49.877Z,5.59
2023-04-07T12:29:17.700Z,5.32
2023-04-07T12:31:44.195Z,5.51
2023-04-07T12:34:10.729Z,5.45
2023-04-07T12:36:37.237Z,5.55
2023-04-07T12:39:03.868Z,5.45
2023-04-07T12:41:30.363Z,5.36
2023-04-07T12:43:56.880Z,5.35
2023-04-07T12:46:23.450Z,5.53
2023-04-07T12:48:50.119Z,5.23
2023-04-07T12:51:16.791Z,5.38
2023-04-07T12:53:43.255Z,5.55
2023-04-07T12:56:10.105Z,5.51
2023-04-07T12:58:36.609Z,5.44
2023-04-07T13:01:03.198Z,5.30
2023-04-07T13:03:29.914Z,6.19
2023-04-07T13:05:56.454Z,5.77
2023-04-07T13:08:22.922Z,6.15
2023-04-07T13:10:49.530Z,5.62
2023-04-07T13:13:16.089Z,5.59
2023-04-07T13:15:42.560Z,5.63
2023-04-07T13:18:09.166Z,5.28
2023-04-07T13:20:35.664Z,5.15
2023-04-07T13:23:08.207Z,4.46
2023-04-07T13:25:36.580Z,4.73
2023-04-07T13:28:03.125Z,4.64
2023-04-07T13:30:29.667Z,4.81
2023-04-07T13:32:56.167Z,4.68
2023-04-07T13:35:22.931Z,4.30
2023-04-07T13:37:50.190Z,4.60
2023-04-07T13:40:16.842Z,4.23
2023-04-07T13:42:43.616Z,3.57
2023-04-07T13:45:10.324Z,3.63
2023-04-07T13:47:36.843Z,3.29
2023-04-07T13:50:04.055Z,2.84
2023-04-07T13:52:30.724Z,3.16
2023-04-07T13:54:57.233Z,2.94
2023-04-07T13:57:23.735Z,2.72
2023-04-07T13:59:51.123Z,3.05
2023-04-07T14:02:20.855Z,2.95
2023-04-07T14:04:47.402Z,3.11
2023-04-07T14:07:13.868Z,2.98
2023-04-07T14:09:40.502Z,2.98
2023-04-07T14:12:06.958Z,3.07
2023-04-07T14:14:33.548Z,2.91
2023-04-07T14:17:00.073Z,3.06
2023-04-07T14:19:26.580Z,2.90
2023-04-07T14:21:53.493Z,2.97
2023-04-07T14:24:19.958Z,2.84
2023-04-07T14:26:46.534Z,2.84
2023-04-07T14:29:13.738Z,2.66
2023-04-07T14:31:40.604Z,2.34
2023-04-07T14:34:07.263Z,2.36
2023-04-07T14:36:33.751Z,2.41
2023-04-07T14:39:00.619Z,2.10
2023-04-07T14:41:27.714Z,1.63
2023-04-07T14:43:54.384Z,1.54
2023-04-07T14:46:24.446Z,1.65
2023-04-07T14:48:51.494Z,1.47
2023-04-07T14:51:18.589Z,1.47
2023-04-07T14:53:45.160Z,1.40
2023-04-07T14:56:12.724Z,1.34
2023-04-07T14:58:39.484Z,1.45
2023-04-07T15:01:07.160Z,1.21
2023-04-07T15:03:34.077Z,1.25
2023-04-07T15:06:01.140Z,1.29
2023-04-07T15:08:27.606Z,1.38
2023-04-07T15:10:54.073Z,1.37
2023-04-07T15:13:20.561Z,1.30
2023-04-07T15:15:47.072Z,1.26
2023-04-07T15:18:13.603Z,1.35
2023-04-07T15:20:40.216Z,1.60
2023-04-07T15:23:06.688Z,1.75
2023-04-07T15:25:33.150Z,1.66
2023-04-07T15:27:59.629Z,1.62
2023-04-07T15:30:26.127Z,1.53
2023-04-07T15:33:00.572Z,1.43
2023-04-07T15:35:27.441Z,1.51
2023-04-07T15:37:54.030Z,1.61
2023-04-07T15:40:20.654Z,1.52
2023-04-07T15:42:47.193Z,1.56
2023-04-07T15:45:13.639Z,1.51
2023-04-07T15:47:40.186Z,2.06
2023-04-07T15:50:07.400Z,2.08
2023-04-07T15:52:33.867Z,1.70
2023-04-07T15:55:00.385Z,1.64
2023-04-07T15:57:26.992Z,1.61
2023-04-07T15:59:53.484Z,1.62
2023-04-07T16:02:20.393Z,1.50
2023-04-07T16:04:47.047Z,1.46
2023-04-07T16:07:13.536Z,1.54
2023-04-07T16:09:40.027Z,1.41
2023-04-07T16:12:06.575Z,1.57
2023-04-07T16:14:33.102Z,1.52
2023-04-07T16:16:59.704Z,1.35
2023-04-07T16:19:26.241Z,1.36
2023-04-07T16:21:53.637Z,1.65
2023-04-07T16:24:20.837Z,1.45
2023-04-07T16:26:47.390Z,1.36
2023-04-07T16:29:13.849Z,1.40
2023-04-07T16:31:40.329Z,1.45
2023-04-07T16:34:06.776Z,1.58
2023-04-07T16:36:33.235Z,1.60
2023-04-07T16:38:59.770Z,1.73
2023-04-07T16:41:26.296Z,1.67
2023-04-07T16:43:52.793Z,1.90
2023-04-07T16:46:19.344Z,2.09
2023-04-07T16:48:46.443Z,1.81
2023-04-07T16:51:19.894Z,1.89
2023-04-07T16:53:47.140Z,2.19
2023-04-07T16:56:23.086Z,2.16
2023-04-07T16:58:50.037Z,2.39
2023-04-07T17:01:17.931Z,2.38
2023-04-07T17:03:47.096Z,2.27
2023-04-07T17:06:13.800Z,2.18
2023-04-07T17:08:40.266Z,2.12
2023-04-07T17:11:08.428Z,1.84
2023-04-07T17:13:35.529Z,1.97
2023-04-07T17:16:04.974Z,2.56
2023-04-07T17:18:32.799Z,2.36
2023-04-07T17:20:59.292Z,1.94
2023-04-07T17:23:25.780Z,2.13
2023-04-07T17:25:52.254Z,1.95
2023-04-07T17:28:18.731Z,1.94
2023-04-07T17:30:45.226Z,1.81
2023-04-07T17:33:11.986Z,1.54
2023-04-07T17:35:38.645Z,2.02
2023-04-07T17:38:05.231Z,2.10
2023-04-07T17:40:32.313Z,2.06
2023-04-07T17:42:59.011Z,2.00
2023-04-07T17:45:25.590Z,1.91
2023-04-07T17:47:52.062Z,2.26
2023-04-07T17:50:18.593Z,2.37
2023-04-07T17:52:45.122Z,1.92
2023-04-07T17:55:11.665Z,1.93
2023-04-07T17:57:38.127Z,1.92
2023-04-07T18:00:06.046Z,1.75
2023-04-07T18:02:32.699Z,1.81
2023-04-07T18:04:59.428Z,2.02
2023-04-07T18:07:26.107Z,1.92
2023-04-07T18:09:53.178Z,1.77
2023-04-07T18:12:19.704Z,2.11
2023-04-07T18:14:46.180Z,1.81
2023-04-07T18:17:12.685Z,1.67
2023-04-07T18:19:39.157Z,1.65
2023-04-07T18:22:05.694Z,1.69
2023-04-07T18:24:32.220Z,1.53
2023-04-07T18:26:58.699Z,1.70
2023-04-07T18:29:25.206Z,1.92
2023-04-07T18:31:51.887Z,2.27
2023-04-07T18:34:18.602Z,3.20
2023-04-07T18:36:45.136Z,3.57
2023-04-07T18:39:11.602Z,2.36
2023-04-07T18:41:39.997Z,1.98
2023-04-07T18:44:06.466Z,2.06
2023-04-07T18:46:33.008Z,1.93
2023-04-07T18:48:59.511Z,2.22
2023-04-07T18:51:26.040Z,2.41
2023-04-07T18:53:52.530Z,2.35
2023-04-07T18:56:19.113Z,2.41
2023-04-07T18:58:45.647Z,2.97
2023-04-07T19:01:12.171Z,3.00
2023-04-07T19:03:39.540Z,3.08
2023-04-07T19:06:06.155Z,3.25
2023-04-07T19:08:32.767Z,3.23
2023-04-07T19:10:59.417Z,3.39
2023-04-07T19:13:26.006Z,3.83
2023-04-07T19:15:52.556Z,3.58
2023-04-07T19:18:19.076Z,3.24
2023-04-07T19:20:45.567Z,3.17
2023-04-07T19:23:12.040Z,3.46
2023-04-07T19:25:38.517Z,3.18
2023-04-07T19:28:05.510Z,3.03
2023-04-07T19:30:31.959Z,2.79
2023-04-07T19:32:58.492Z,2.69
2023-04-07T19:35:25.125Z,2.89
2023-04-07T19:37:51.636Z,2.72
2023-04-07T19:40:18.166Z,2.89
2023-04-07T19:42:44.908Z,3.52
2023-04-07T19:45:11.870Z,3.05
2023-04-07T19:47:38.535Z,3.54
2023-04-07T19:50:06.194Z,3.00
2023-04-07T19:52:32.967Z,3.27
2023-04-07T19:54:59.631Z,3.25
2023-04-07T19:57:26.169Z,3.03
2023-04-07T19:59:52.744Z,3.33
2023-04-07T20:02:19.456Z,3.20
2023-04-07T20:04:46.046Z,3.23
2023-04-07T20:07:12.629Z,2.90
2023-04-07T20:09:39.155Z,2.60
2023-04-07T20:12:05.685Z,2.28
2023-04-07T20:14:32.273Z,2.55
2023-04-07T20:16:58.820Z,2.59
2023-04-07T20:19:25.461Z,2.62
2023-04-07T20:21:51.926Z,2.65
2023-04-07T20:24:18.480Z,2.49
2023-04-07T20:26:45.009Z,2.50
2023-04-07T20:29:11.466Z,2.41
2023-04-07T20:31:37.991Z,2.38
2023-04-07T20:34:04.483Z,2.11
2023-04-07T20:36:30.950Z,2.31
2023-04-07T20:38:57.618Z,2.28
2023-04-07T20:41:24.106Z,2.49
2023-04-07T20:43:51.302Z,2.13
2023-04-07T20:46:18.026Z,2.18
2023-04-07T20:48:44.565Z,2.17
2023-04-07T20:51:11.014Z,2.44
2023-04-07T20:53:37.492Z,2.62
2023-04-07T20:56:03.986Z,2.51
2023-04-07T20:58:30.485Z,2.46
2023-04-07T21:00:58.737Z,2.43
2023-04-07T21:03:26.987Z,2.31
2023-04-07T21:05:54.424Z,2.27
2023-04-07T21:08:21.108Z,2.31
2023-04-07T21:10:47.598Z,2.43
2023-04-07T21:13:14.096Z,2.69
2023-04-07T21:15:40.599Z,2.59
2023-04-07T21:18:07.160Z,2.85
2023-04-07T21:20:36.107Z,2.70
2023-04-07T21:23:02.740Z,2.35
2023-04-07T21:25:29.203Z,2.34
2023-04-07T21:27:55.687Z,2.39
2023-04-07T21:30:22.344Z,2.23
2023-04-07T21:32:48.870Z,2.49
2023-04-07T21:35:15.516Z,2.57
2023-04-07T21:37:42.033Z,2.37
2023-04-07T21:40:09.051Z,2.51
2023-04-07T21:42:35.524Z,2.30
2023-04-07T21:45:02.087Z,2.62
2023-04-07T21:47:28.630Z,2.89
2023-04-07T21:49:55.190Z,2.89
2023-04-07T21:52:21.716Z,2.77
2023-04-07T21:54:48.259Z,2.43
2023-04-07T21:57:14.779Z,2.43
2023-04-07T21:59:41.254Z,2.58
2023-04-07T22:02:07.782Z,2.50
2023-04-07T22:04:34.404Z,2.42
2023-04-07T22:07:01.180Z,2.54
2023-04-07T22:09:27.745Z,2.76
2023-04-07T22:11:54.242Z,3.12
2023-04-07T22:14:20.727Z,3.30
2023-04-07T22:16:47.196Z,3.44
2023-04-07T22:19:13.655Z,3.74
2023-04-07T22:21:40.166Z,3.10
2023-04-07T22:24:06.671Z,2.72
2023-04-07T22:26:33.125Z,2.54
2023-04-07T22:28:59.642Z,2.38
2023-04-07T22:31:26.179Z,2.50
2023-04-07T22:33:52.713Z,2.86
2023-04-07T22:36:19.208Z,2.52
2023-04-07T22:38:45.782Z,2.54
2023-04-07T22:41:12.325Z,2.22
2023-04-07T22:43:38.812Z,2.25
2023-04-07T22:46:05.503Z,2.40
2023-04-07T22:48:31.952Z,2.15
2023-04-07T22:50:58.980Z,2.27
2023-04-07T22:53:25.465Z,2.34
2023-04-07T22:55:52.010Z,2.06
2023-04-07T22:58:18.512Z,2.44
2023-04-07T23:00:45.051Z,2.31
2023-04-07T23:03:11.606Z,2.61
2023-04-07T23:05:38.121Z,2.61
2023-04-07T23:08:04.634Z,2.65
2023-04-07T23:10:31.977Z,2.59
2023-04-07T23:12:58.511Z,2.50
2023-04-07T23:15:25.153Z,2.65
2023-04-07T23:17:51.686Z,2.63
2023-04-07T23:20:18.290Z,2.67
2023-04-07T23:22:44.740Z,2.70
2023-04-07T23:25:11.198Z,2.66
2023-04-07T23:27:37.685Z,2.69
2023-04-07T23:30:04.717Z,2.72
2023-04-07T23:32:31.230Z,2.59
2023-04-07T23:34:57.784Z,2.70
2023-04-07T23:37:24.277Z,2.67
2023-04-07T23:39:51.376Z,2.52
2023-04-07T23:42:17.822Z,2.34
2023-04-07T23:44:44.252Z,2.35
2023-04-07T23:47:10.724Z,2.18
2023-04-07T23:49:37.195Z,2.30
2023-04-07T23:52:03.885Z,2.23
2023-04-07T23:54:30.360Z,2.53
2023-04-07T23:56:56.862Z,2.58
2023-04-07T23:59:23.524Z,2.43
